Time;durP1;ratioP1;P1;durP2;ratioP2;P2;SDS_P1;SDS_P2;PMS_P1;PMS_P2;Temp;Humidity;BMP_temperature;BMP_pressure;BME280_temperature;BME280_humidity;BME280_pressure;Samples;Min_cycle;Max_cycle;Signal;HPM_P1;HPM_P2
2022/07/07 00:02:26;;;;;;;9.40;6.35;;;19.00;99.90;;;;;;5038733;28;20656;-79
2022/07/07 00:04:53;;;;;;;12.75;8.23;;;19.00;99.90;;;;;;5039076;28;20654;-79
2022/07/07 00:07:20;;;;;;;10.77;6.65;;;18.90;99.90;;;;;;5037536;28;20214;-79
2022/07/07 00:09:49;;;;;;;9.90;7.47;;;19.00;99.90;;;;;;5035716;28;20271;-80
2022/07/07 00:12:16;;;;;;;12.90;7.43;;;18.90;99.90;;;;;;5044419;28;20220;-78
2022/07/07 00:14:43;;;;;;;12.30;7.25;;;18.90;99.90;;;;;;5033801;28;20265;-78
2022/07/07 00:17:10;;;;;;;12.27;8.07;;;18.90;99.90;;;;;;5035831;28;20229;-79
2022/07/07 00:19:37;;;;;;;10.95;7.53;;;18.90;99.90;;;;;;5041438;28;20212;-79
2022/07/07 00:22:04;;;;;;;16.33;8.18;;;19.00;99.90;;;;;;5037513;28;20267;-81
2022/07/07 00:24:31;;;;;;;12.57;8.05;;;19.00;99.90;;;;;;5037017;28;20213;-80
2022/07/07 00:26:58;;;;;;;14.43;8.73;;;19.00;99.90;;;;;;5037581;28;20237;-78
2022/07/07 00:29:25;;;;;;;12.30;8.38;;;19.00;99.90;;;;;;5037389;28;20240;-80
2022/07/07 00:31:52;;;;;;;13.00;8.48;;;19.00;99.90;;;;;;5044080;28;20645;-80
2022/07/07 00:34:20;;;;;;;11.45;7.88;;;19.00;99.90;;;;;;5034934;28;20230;-79
2022/07/07 00:36:47;;;;;;;10.50;7.78;;;18.90;99.90;;;;;;5037688;28;20255;-80
2022/07/07 00:39:13;;;;;;;10.90;7.88;;;18.90;99.90;;;;;;5038094;28;20366;-78
2022/07/07 00:41:40;;;;;;;13.43;8.38;;;18.90;99.90;;;;;;5040646;28;20271;-78
2022/07/07 00:44:12;;;;;;;11.07;8.35;;;18.90;99.90;;;;;;5045536;28;20682;-80
2022/07/07 00:46:47;;;;;;;14.65;8.23;;;19.00;99.90;;;;;;5038409;28;20561;-79
2022/07/07 00:49:16;;;;;;;19.55;8.52;;;19.00;99.90;;;;;;5036051;28;20197;-80
2022/07/07 00:51:46;;;;;;;15.95;9.27;;;19.10;99.90;;;;;;5036438;28;20850;-80
2022/07/07 00:54:13;;;;;;;14.43;8.40;;;19.10;99.90;;;;;;5035687;28;20209;-80
2022/07/07 00:56:40;;;;;;;13.73;8.57;;;19.00;99.90;;;;;;5034939;28;20206;-79
2022/07/07 00:59:07;;;;;;;13.38;8.32;;;19.00;99.90;;;;;;5039877;28;20239;-79
2022/07/07 01:01:39;;;;;;;15.55;9.02;;;18.90;99.90;;;;;;5036448;28;21046;-80
2022/07/07 01:04:09;;;;;;;14.48;8.75;;;18.90;99.90;;;;;;5046079;28;20193;-79
2022/07/07 01:06:35;;;;;;;12.75;8.60;;;18.90;99.90;;;;;;5038263;28;20236;-78
2022/07/07 01:09:03;;;;;;;13.95;8.88;;;18.80;99.90;;;;;;5038161;28;20221;-79
2022/07/07 01:11:56;;;;;;;11.05;8.07;;;18.80;99.90;;;;;;5038965;28;20214;-79
2022/07/07 01:14:23;;;;;;;11.13;7.88;;;18.80;99.90;;;;;;5048049;28;20386;-80
2022/07/07 01:16:53;;;;;;;10.90;8.93;;;18.80;99.90;;;;;;5040176;28;20269;-76
2022/07/07 01:19:22;;;;;;;16.42;10.38;;;18.70;99.90;;;;;;5034149;28;20217;-83
2022/07/07 01:21:56;;;;;;;14.50;9.68;;;18.70;99.90;;;;;;5041679;28;20241;-79
2022/07/07 01:24:26;;;;;;;15.65;9.90;;;18.60;99.90;;;;;;5036717;28;20217;-80
2022/07/07 01:27:13;;;;;;;16.25;10.70;;;18.60;99.90;;;;;;5040137;28;20314;-79
2022/07/07 01:29:43;;;;;;;14.50;10.55;;;18.60;99.90;;;;;;5040781;28;20271;-80
2022/07/07 01:32:10;;;;;;;11.63;8.45;;;18.60;99.90;;;;;;5036722;28;20202;-80
2022/07/07 01:34:39;;;;;;;14.93;8.95;;;18.50;99.90;;;;;;5040147;28;20204;-79
2022/07/07 01:37:07;;;;;;;12.23;9.15;;;18.50;99.90;;;;;;5044617;28;20255;-78
2022/07/07 01:39:34;;;;;;;16.02;8.95;;;18.50;99.90;;;;;;5041613;28;20221;-77
2022/07/07 01:42:01;;;;;;;14.20;7.90;;;18.40;99.90;;;;;;5037611;28;20229;-80
2022/07/07 01:44:32;;;;;;;15.77;8.30;;;18.50;99.90;;;;;;5043414;28;20263;-78
2022/07/07 01:46:58;;;;;;;13.48;8.68;;;18.50;99.90;;;;;;5041976;28;20620;-78
2022/07/07 01:49:27;;;;;;;12.02;7.88;;;18.50;99.90;;;;;;5032392;28;20553;-80
2022/07/07 01:51:54;;;;;;;7.75;6.47;;;18.50;99.90;;;;;;5036030;28;20216;-78
2022/07/07 01:54:21;;;;;;;15.95;8.30;;;18.40;99.90;;;;;;5046430;28;20303;-78
2022/07/07 01:56:48;;;;;;;15.27;8.57;;;18.40;99.90;;;;;;5042155;28;20213;-78
2022/07/07 01:59:15;;;;;;;11.88;6.85;;;18.40;99.90;;;;;;5040362;28;20247;-79
2022/07/07 02:01:42;;;;;;;12.85;7.78;;;18.40;99.90;;;;;;5035907;28;20225;-79
2022/07/07 02:04:09;;;;;;;10.95;7.38;;;18.40;99.90;;;;;;5039481;28;20225;-79
2022/07/07 02:06:38;;;;;;;12.50;6.95;;;18.40;99.90;;;;;;5041478;28;20209;-85
2022/07/07 02:09:05;;;;;;;9.88;5.85;;;18.40;99.90;;;;;;5040973;28;20205;-85
2022/07/07 02:11:33;;;;;;;7.38;4.43;;;18.30;99.90;;;;;;5038162;28;20990;-85
2022/07/07 02:14:04;;;;;;;7.00;4.10;;;18.20;99.90;;;;;;5053693;28;20275;-86
2022/07/07 02:16:36;;;;;;;6.20;3.78;;;18.10;99.90;;;;;;5046239;28;20797;-85
2022/07/07 02:19:06;;;;;;;5.60;2.72;;;18.00;99.90;;;;;;5041344;28;20688;-87
2022/07/07 02:21:33;;;;;;;4.03;2.67;;;17.90;99.90;;;;;;5038723;28;20237;-85
2022/07/07 02:24:06;;;;;;;5.77;2.50;;;17.80;99.90;;;;;;5044655;28;20216;-86
2022/07/07 02:26:33;;;;;;;3.63;2.90;;;17.80;99.90;;;;;;5055056;28;20251;-85
2022/07/07 02:29:03;;;;;;;5.83;2.60;;;17.80;99.90;;;;;;5047217;28;20213;-88
2022/07/07 02:31:33;;;;;;;5.77;3.00;;;17.70;99.90;;;;;;5048437;28;20217;-88
2022/07/07 02:34:00;;;;;;;3.40;2.30;;;17.60;99.90;;;;;;5038765;28;20217;-88
2022/07/07 02:36:27;;;;;;;3.13;2.60;;;17.60;99.90;;;;;;5041263;28;20209;-83
2022/07/07 02:38:55;;;;;;;4.63;3.10;;;17.60;99.90;;;;;;5036862;28;20209;-82
2022/07/07 02:41:22;;;;;;;4.67;3.23;;;17.60;99.90;;;;;;5041852;28;20317;-84
2022/07/07 02:43:49;;;;;;;4.57;3.67;;;17.50;99.90;;;;;;5059457;28;20212;-85
2022/07/07 02:46:16;;;;;;;6.07;3.87;;;17.60;99.90;;;;;;5038415;28;20631;-83
2022/07/07 02:48:43;;;;;;;4.57;3.90;;;17.50;99.90;;;;;;5035920;28;20712;-87
2022/07/07 02:51:10;;;;;;;4.27;3.53;;;17.50;99.90;;;;;;5039585;28;20256;-83
2022/07/07 02:53:37;;;;;;;5.40;4.10;;;17.50;99.90;;;;;;5039176;28;20217;-89
2022/07/07 02:56:04;;;;;;;6.57;4.43;;;17.50;99.90;;;;;;5039321;28;20205;-83
2022/07/07 02:58:31;;;;;;;5.53;4.23;;;17.50;99.90;;;;;;5036149;28;20296;-85
2022/07/07 03:00:58;;;;;;;6.63;4.67;;;17.50;99.90;;;;;;5038061;28;20224;-84
2022/07/07 03:03:25;;;;;;;5.50;4.30;;;17.50;99.90;;;;;;5045610;28;20750;-86
2022/07/07 03:05:52;;;;;;;7.40;5.27;;;17.40;99.90;;;;;;5040804;28;20244;-85
2022/07/07 03:08:19;;;;;;;6.20;5.23;;;17.40;99.90;;;;;;5037808;28;20213;-86
2022/07/07 03:10:46;;;;;;;10.03;5.47;;;17.30;99.90;;;;;;5037475;28;20214;-82
2022/07/07 03:13:13;;;;;;;6.47;5.33;;;17.40;99.90;;;;;;5046137;28;20197;-84
2022/07/07 03:15:40;;;;;;;6.37;5.77;;;17.40;99.90;;;;;;5038757;28;20223;-85
2022/07/07 03:18:07;;;;;;;7.63;5.70;;;17.40;99.90;;;;;;5046491;28;21005;-84
2022/07/07 03:20:34;;;;;;;6.53;5.47;;;17.40;99.90;;;;;;5053580;28;20213;-87
2022/07/07 03:23:01;;;;;;;7.47;5.70;;;17.40;99.90;;;;;;5040534;28;20708;-86
2022/07/07 03:25:28;;;;;;;6.67;5.17;;;17.30;99.90;;;;;;5060648;28;20201;-83
2022/07/07 03:27:54;;;;;;;8.77;4.90;;;17.30;99.90;;;;;;5053312;28;20213;-86
2022/07/07 03:30:22;;;;;;;8.10;4.50;;;17.30;99.90;;;;;;5050882;28;20263;-86
2022/07/07 03:32:49;;;;;;;5.50;4.70;;;17.30;99.90;;;;;;5055542;28;20231;-83
2022/07/07 03:35:16;;;;;;;5.93;4.20;;;17.30;99.90;;;;;;5045774;28;20542;-83
2022/07/07 03:37:42;;;;;;;6.77;4.57;;;17.30;99.90;;;;;;5053014;28;20267;-83
2022/07/07 03:40:10;;;;;;;7.43;4.43;;;17.30;99.90;;;;;;5039999;28;20198;-85
2022/07/07 03:42:37;;;;;;;5.83;4.20;;;17.30;99.90;;;;;;5055880;28;20233;-84
2022/07/07 03:45:06;;;;;;;7.77;4.30;;;17.30;99.90;;;;;;5045556;28;20209;-83
2022/07/07 03:47:34;;;;;;;6.00;4.73;;;17.30;99.90;;;;;;5044024;28;20209;-85
2022/07/07 03:50:01;;;;;;;10.60;5.37;;;17.30;99.90;;;;;;5046401;28;20225;-85
2022/07/07 03:52:27;;;;;;;5.13;4.63;;;17.40;99.90;;;;;;5044230;28;20617;-83
2022/07/07 03:54:56;;;;;;;6.27;4.80;;;17.40;99.90;;;;;;5032167;28;20202;-85
2022/07/07 03:57:23;;;;;;;6.57;5.03;;;17.40;99.90;;;;;;5043180;28;20259;-83
2022/07/07 03:59:50;;;;;;;8.37;5.30;;;17.40;99.90;;;;;;5038660;28;20252;-83
2022/07/07 04:02:17;;;;;;;7.50;5.27;;;17.40;99.90;;;;;;5048426;28;20956;-84
2022/07/07 04:04:44;;;;;;;7.57;4.80;;;17.30;99.90;;;;;;5057913;28;20627;-82
2022/07/07 04:07:11;;;;;;;4.87;3.53;;;17.40;99.90;;;;;;5047609;28;20206;-83
2022/07/07 04:09:37;;;;;;;6.23;4.10;;;17.30;99.90;;;;;;5037311;28;20299;-81
2022/07/07 04:12:05;;;;;;;5.80;3.93;;;17.30;99.90;;;;;;5037894;28;20206;-82
2022/07/07 04:14:31;;;;;;;4.83;3.33;;;17.30;99.90;;;;;;5042454;28;20198;-82
2022/07/07 04:16:58;;;;;;;5.47;2.70;;;17.30;99.90;;;;;;5042829;28;20569;-82
2022/07/07 04:19:25;;;;;;;4.97;2.80;;;17.30;99.90;;;;;;5046968;28;20209;-83
2022/07/07 04:21:52;;;;;;;4.23;2.30;;;17.30;99.90;;;;;;5039359;28;20306;-81
2022/07/07 04:24:18;;;;;;;6.67;3.17;;;17.30;99.90;;;;;;5041829;28;20503;-80
2022/07/07 04:26:45;;;;;;;6.43;2.80;;;17.20;99.90;;;;;;5043424;28;20308;-79
2022/07/07 04:29:14;;;;;;;3.20;2.27;;;17.30;99.90;;;;;;5051258;28;20985;-78
2022/07/07 04:31:44;;;;;;;6.33;2.50;;;17.30;99.90;;;;;;5037649;28;20619;-80
2022/07/07 04:34:12;;;;;;;5.53;2.40;;;17.30;99.90;;;;;;5031262;28;20222;-79
2022/07/07 04:36:40;;;;;;;4.90;2.57;;;17.30;99.90;;;;;;5036305;28;20217;-82
2022/07/07 04:39:08;;;;;;;4.70;2.40;;;17.30;99.90;;;;;;5041192;28;20202;-79
2022/07/07 04:41:36;;;;;;;5.07;2.10;;;17.50;99.90;;;;;;5037203;28;20315;-81
2022/07/07 04:44:03;;;;;;;5.10;2.10;;;17.50;99.90;;;;;;5029250;28;20210;-79
2022/07/07 04:46:30;;;;;;;3.87;2.33;;;17.60;99.90;;;;;;5033802;28;20212;-79
2022/07/07 04:48:59;;;;;;;3.03;1.93;;;17.60;99.90;;;;;;5067888;28;20301;-82
2022/07/07 04:51:26;;;;;;;2.23;1.60;;;17.60;99.90;;;;;;5033532;28;20293;-80
2022/07/07 04:53:56;;;;;;;4.93;1.87;;;17.60;99.90;;;;;;5046712;28;20209;-83
2022/07/07 04:56:23;;;;;;;4.20;1.98;;;17.60;99.90;;;;;;5047584;28;20213;-82
2022/07/07 04:58:50;;;;;;;8.55;2.00;;;17.60;99.90;;;;;;5044626;28;20214;-77
2022/07/07 05:01:17;;;;;;;7.40;2.30;;;17.60;99.90;;;;;;5043718;28;20657;-81
2022/07/07 05:03:44;;;;;;;4.63;1.80;;;17.50;99.90;;;;;;5048557;28;20225;-82
2022/07/07 05:06:11;;;;;;;4.47;1.40;;;17.50;99.90;;;;;;5042762;28;20214;-77
2022/07/07 05:08:39;;;;;;;5.97;1.80;;;17.40;99.90;;;;;;5039968;28;20206;-80
2022/07/07 05:11:06;;;;;;;4.60;1.30;;;17.20;99.90;;;;;;5047349;28;20220;-80
2022/07/07 05:13:34;;;;;;;1.40;1.07;;;17.10;99.90;;;;;;5041864;28;20202;-81
2022/07/07 05:16:00;;;;;;;3.10;1.30;;;17.10;99.90;;;;;;5037909;28;20214;-81
2022/07/07 05:18:28;;;;;;;3.53;1.70;;;17.10;99.90;;;;;;5042947;28;20252;-79
2022/07/07 05:20:55;;;;;;;4.43;1.30;;;17.10;99.90;;;;;;5044386;28;20288;-80
2022/07/07 05:23:21;;;;;;;10.27;1.70;;;17.10;99.90;;;;;;5039860;28;20256;-84
2022/07/07 05:25:50;;;;;;;7.30;1.70;;;17.10;99.90;;;;;;5050850;28;20246;-82
2022/07/07 05:28:18;;;;;;;5.03;1.73;;;17.20;99.90;;;;;;5043607;28;20319;-82
2022/07/07 05:30:45;;;;;;;7.13;1.80;;;17.30;99.90;;;;;;5041034;28;20372;-80
2022/07/07 05:33:12;;;;;;;5.23;1.80;;;17.40;99.90;;;;;;5045922;28;20267;-84
2022/07/07 05:35:38;;;;;;;7.55;1.80;;;17.50;99.90;;;;;;5046175;28;20596;-80
2022/07/07 05:38:05;;;;;;;6.35;1.52;;;17.60;99.90;;;;;;5033463;28;20241;-80
2022/07/07 05:40:33;;;;;;;7.13;1.73;;;17.60;99.90;;;;;;5044190;28;20255;-81
2022/07/07 05:43:00;;;;;;;7.80;1.80;;;17.70;99.90;;;;;;5039444;28;20440;-82
2022/07/07 05:45:27;;;;;;;8.33;1.70;;;17.70;99.90;;;;;;5053098;28;20309;-82
2022/07/07 05:47:54;;;;;;;8.88;1.88;;;17.80;99.90;;;;;;5034331;28;20217;-81
2022/07/07 05:50:20;;;;;;;7.70;1.55;;;17.80;99.90;;;;;;5042804;28;20214;-81
2022/07/07 05:52:47;;;;;;;9.50;2.30;;;17.80;99.90;;;;;;5036671;28;20285;-82
2022/07/07 05:55:14;;;;;;;7.65;1.95;;;17.80;99.90;;;;;;5039903;28;20567;-82
2022/07/07 05:57:41;;;;;;;13.30;2.38;;;17.70;99.90;;;;;;5044526;28;20248;-82
2022/07/07 06:00:08;;;;;;;5.65;1.40;;;17.70;99.90;;;;;;5037879;28;20272;-84
2022/07/07 06:02:35;;;;;;;10.68;1.67;;;17.70;99.90;;;;;;5041941;28;20309;-81
2022/07/07 06:05:02;;;;;;;6.47;1.70;;;17.70;99.90;;;;;;5045132;28;20209;-80
2022/07/07 06:07:29;;;;;;;7.50;2.13;;;17.70;99.90;;;;;;5040764;28;20616;-81
2022/07/07 06:09:56;;;;;;;7.78;1.73;;;17.60;99.90;;;;;;5036940;28;20201;-80
2022/07/07 06:12:23;;;;;;;5.00;1.48;;;17.60;99.90;;;;;;5033867;28;20205;-80
2022/07/07 06:14:50;;;;;;;7.88;1.50;;;17.50;99.90;;;;;;5037339;28;20267;-81
2022/07/07 06:17:16;;;;;;;6.18;1.65;;;17.40;99.90;;;;;;5035619;28;20542;-83
2022/07/07 06:19:43;;;;;;;7.75;1.55;;;17.40;99.90;;;;;;5048349;28;20213;-82
2022/07/07 06:22:10;;;;;;;6.57;1.67;;;17.40;99.90;;;;;;5045169;28;20260;-81
2022/07/07 06:24:37;;;;;;;8.77;1.75;;;17.50;99.90;;;;;;5048277;28;20205;-82
2022/07/07 06:27:05;;;;;;;4.50;1.25;;;17.50;99.90;;;;;;5037816;28;20201;-81
2022/07/07 06:29:31;;;;;;;8.63;1.98;;;17.60;99.90;;;;;;5041291;28;20275;-82
2022/07/07 06:31:58;;;;;;;3.92;1.65;;;17.70;99.90;;;;;;5047373;28;20204;-78
2022/07/07 06:34:25;;;;;;;6.55;1.98;;;17.80;99.90;;;;;;5046102;28;20248;-81
2022/07/07 06:36:57;;;;;;;7.40;1.70;;;17.90;99.90;;;;;;5043985;28;20217;-78
2022/07/07 06:39:24;;;;;;;4.13;1.55;;;17.90;99.90;;;;;;5045879;28;21388;-77
2022/07/07 06:41:51;;;;;;;5.82;1.58;;;18.00;99.90;;;;;;5044100;28;20245;-79
2022/07/07 06:44:19;;;;;;;5.20;1.65;;;18.00;99.90;;;;;;5045801;28;20640;-81
2022/07/07 06:46:45;;;;;;;6.13;1.90;;;18.00;99.90;;;;;;5032579;28;20194;-79
2022/07/07 06:49:13;;;;;;;4.85;1.20;;;18.00;99.90;;;;;;5045398;28;20517;-82
2022/07/07 06:51:40;;;;;;;7.10;1.67;;;17.90;99.90;;;;;;5047108;28;20225;-79
2022/07/07 06:54:07;;;;;;;4.70;1.50;;;17.80;99.90;;;;;;5052799;28;20732;-81
2022/07/07 06:56:34;;;;;;;6.07;1.80;;;17.80;99.90;;;;;;5045862;28;20197;-82
2022/07/07 06:59:00;;;;;;;4.95;1.33;;;17.80;99.90;;;;;;5045773;28;20669;-81
2022/07/07 07:01:27;;;;;;;6.38;1.80;;;17.80;99.90;;;;;;5047752;28;20229;-77
2022/07/07 07:03:54;;;;;;;7.63;1.77;;;17.90;99.90;;;;;;5052343;28;20256;-80
2022/07/07 07:06:21;;;;;;;4.57;1.38;;;18.00;99.90;;;;;;5047638;28;20209;-80
2022/07/07 07:08:48;;;;;;;4.30;1.00;;;18.00;99.90;;;;;;5046679;28;20640;-82
2022/07/07 07:11:15;;;;;;;2.88;1.00;;;18.00;99.90;;;;;;5046342;28;20212;-79
2022/07/07 07:13:42;;;;;;;2.80;0.93;;;18.00;99.90;;;;;;5055255;28;20297;-83
2022/07/07 07:16:10;;;;;;;2.40;0.52;;;17.90;99.90;;;;;;5049454;28;20668;-79
2022/07/07 07:18:36;;;;;;;2.05;0.60;;;17.90;99.90;;;;;;5032035;28;20214;-80
2022/07/07 07:21:03;;;;;;;3.00;1.13;;;17.90;99.90;;;;;;5032902;28;20861;-81
2022/07/07 07:23:30;;;;;;;1.60;0.70;;;17.90;99.90;;;;;;5029283;28;20218;-80
2022/07/07 07:25:57;;;;;;;3.47;0.80;;;18.00;99.90;;;;;;5031326;28;20209;-79
2022/07/07 07:28:24;;;;;;;4.72;1.15;;;18.10;99.90;;;;;;5033429;28;20752;-80
2022/07/07 07:30:51;;;;;;;2.38;0.80;;;18.40;99.90;;;;;;5034113;28;20205;-82
2022/07/07 07:33:17;;;;;;;3.10;0.77;;;18.70;99.90;;;;;;5030386;28;20210;-80
2022/07/07 07:35:44;;;;;;;1.75;0.80;;;19.10;99.90;;;;;;5026227;28;20206;-78
2022/07/07 07:38:11;;;;;;;3.28;1.02;;;19.50;99.90;;;;;;5059718;28;20279;-80
2022/07/07 07:40:38;;;;;;;3.60;1.10;;;19.90;99.90;;;;;;5033377;28;20722;-82
2022/07/07 07:43:05;;;;;;;2.45;0.50;;;20.20;99.90;;;;;;5032437;28;20279;-83
2022/07/07 07:45:32;;;;;;;3.38;0.68;;;20.10;99.90;;;;;;5031975;28;20194;-79
2022/07/07 07:48:02;;;;;;;2.22;0.50;;;20.00;99.90;;;;;;5034307;28;20265;-78
2022/07/07 07:50:31;;;;;;;1.67;0.70;;;19.80;99.90;;;;;;5025944;28;20293;-80
2022/07/07 07:52:59;;;;;;;4.18;0.80;;;19.60;99.90;;;;;;5029003;28;20574;-78
2022/07/07 07:55:25;;;;;;;1.83;0.68;;;19.40;99.90;;;;;;5019902;28;20713;-78
2022/07/07 07:57:52;;;;;;;4.18;0.70;;;19.20;99.90;;;;;;5028954;28;20289;-80
2022/07/07 08:00:20;;;;;;;5.90;1.02;;;19.00;99.90;;;;;;5032514;28;20279;-79
2022/07/07 08:02:48;;;;;;;1.55;0.70;;;18.90;99.90;;;;;;5030702;28;20276;-80
2022/07/07 08:05:16;;;;;;;2.22;0.90;;;18.70;99.90;;;;;;5030118;28;20243;-80
2022/07/07 08:07:44;;;;;;;4.97;1.30;;;18.60;99.90;;;;;;5034493;28;20209;-78
2022/07/07 08:10:12;;;;;;;4.80;1.40;;;18.60;99.90;;;;;;5025658;28;20655;-82
2022/07/07 08:12:40;;;;;;;3.95;1.17;;;18.40;99.90;;;;;;5031689;28;20287;-80
2022/07/07 08:15:08;;;;;;;4.00;1.15;;;18.30;99.90;;;;;;5029102;28;20214;-80
2022/07/07 08:17:35;;;;;;;2.00;1.13;;;18.20;99.90;;;;;;5039355;28;20257;-79
2022/07/07 08:20:03;;;;;;;7.30;1.65;;;18.10;99.90;;;;;;5044244;28;20242;-79
2022/07/07 08:22:30;;;;;;;5.25;1.00;;;18.10;99.90;;;;;;5047425;28;20275;-81
2022/07/07 08:24:57;;;;;;;1.85;0.88;;;18.00;99.90;;;;;;5051694;28;20300;-78
2022/07/07 08:27:25;;;;;;;4.22;1.17;;;18.10;99.90;;;;;;5045986;28;20196;-79
2022/07/07 08:29:51;;;;;;;3.60;1.05;;;18.30;99.90;;;;;;5049764;28;20197;-82
2022/07/07 08:32:18;;;;;;;2.13;1.05;;;18.50;99.90;;;;;;5049240;28;20201;-79
2022/07/07 08:34:46;;;;;;;4.72;1.30;;;18.80;99.90;;;;;;5046272;28;20590;-80
2022/07/07 08:37:14;;;;;;;2.08;1.00;;;19.00;99.90;;;;;;5046196;28;20197;-81
2022/07/07 08:39:41;;;;;;;3.65;0.82;;;19.20;99.90;;;;;;5052283;28;20248;-80
2022/07/07 08:42:08;;;;;;;5.22;0.80;;;19.60;99.90;;;;;;5050904;28;21403;-82
2022/07/07 08:44:35;;;;;;;4.97;0.82;;;19.80;99.90;;;;;;5054051;28;20225;-81
2022/07/07 08:47:01;;;;;;;6.78;0.90;;;19.70;99.90;;;;;;5054634;28;20197;-80
2022/07/07 08:49:29;;;;;;;2.67;0.90;;;19.60;99.90;;;;;;5054757;28;20243;-81
2022/07/07 08:51:57;;;;;;;2.50;0.90;;;19.30;99.90;;;;;;5058916;28;20520;-82
2022/07/07 08:54:25;;;;;;;3.28;0.70;;;19.10;99.90;;;;;;5051908;28;20730;-80
2022/07/07 08:56:56;;;;;;;4.03;0.85;;;19.00;99.90;;;;;;5054064;28;20250;-78
2022/07/07 08:59:23;;;;;;;3.35;0.70;;;18.80;99.90;;;;;;5053480;28;20231;-79
2022/07/07 09:02:00;;;;;;;2.03;0.70;;;18.60;99.90;;;;;;5049164;28;20251;-79
2022/07/07 09:04:28;;;;;;;3.72;1.13;;;18.60;99.90;;;;;;5050289;28;20982;-81
2022/07/07 09:07:00;;;;;;;3.28;0.75;;;18.50;99.90;;;;;;5048211;28;20200;-80
2022/07/07 09:09:36;;;;;;;1.05;0.80;;;18.40;99.90;;;;;;5054063;28;20207;-79
2022/07/07 09:12:04;;;;;;;5.18;0.80;;;18.50;99.90;;;;;;5044029;28;20197;-78
2022/07/07 09:14:45;;;;;;;3.65;0.80;;;18.60;99.90;;;;;;5046102;28;20654;-80
2022/07/07 09:17:27;;;;;;;5.03;0.90;;;18.90;99.90;;;;;;5046314;28;20633;-79
2022/07/07 09:20:08;;;;;;;5.57;0.88;;;19.20;99.90;;;;;;5057427;28;20287;-80
2022/07/07 09:22:42;;;;;;;3.63;0.70;;;19.50;99.90;;;;;;5047562;28;20250;-81
2022/07/07 09:25:09;;;;;;;1.27;0.75;;;19.60;99.90;;;;;;5048835;28;20209;-81
2022/07/07 09:27:49;;;;;;;2.90;1.10;;;19.70;99.90;;;;;;5045738;28;20228;-82
2022/07/07 09:30:33;;;;;;;2.15;0.70;;;19.90;99.90;;;;;;5047180;28;20279;-84
2022/07/07 09:33:12;;;;;;;3.75;1.00;;;20.00;99.90;;;;;;5051584;28;20227;-81
2022/07/07 09:38:31;;;;;;;4.90;1.00;;;19.80;99.90;;;;;;5052043;28;20201;-81
2022/07/07 09:41:05;;;;;;;4.95;1.02;;;19.60;99.90;;;;;;5040942;28;20258;-81
2022/07/07 09:43:46;;;;;;;3.97;0.80;;;19.30;99.90;;;;;;5045523;28;20232;-80
2022/07/07 09:46:24;;;;;;;2.83;0.80;;;19.30;99.90;;;;;;5041998;28;20276;-79
2022/07/07 09:48:59;;;;;;;3.80;1.85;;;19.40;99.90;;;;;;5036642;28;20225;-79
2022/07/07 09:51:31;;;;;;;3.53;0.95;;;19.60;99.90;;;;;;5045079;28;20602;-81
2022/07/07 09:54:03;;;;;;;3.67;0.85;;;20.00;99.90;;;;;;5044659;28;20263;-81
2022/07/07 09:56:50;;;;;;;4.30;1.13;;;20.20;99.90;;;;;;5047763;28;20228;-82
2022/07/07 09:59:21;;;;;;;4.32;1.20;;;20.30;99.90;;;;;;5044746;28;20228;-82
2022/07/07 10:01:49;;;;;;;1.90;0.93;;;20.30;99.90;;;;;;5043601;28;20591;-79
2022/07/07 10:04:19;;;;;;;2.03;0.90;;;20.30;99.90;;;;;;5049757;28;20576;-81
2022/07/07 10:06:46;;;;;;;6.40;0.80;;;20.20;99.90;;;;;;5045887;28;20556;-82
2022/07/07 10:09:18;;;;;;;3.78;1.00;;;20.20;99.90;;;;;;5061703;28;20205;-81
2022/07/07 10:11:49;;;;;;;2.53;0.80;;;20.20;99.90;;;;;;5040347;28;20225;-79
2022/07/07 10:14:27;;;;;;;3.40;1.13;;;20.50;99.90;;;;;;5048082;28;20809;-81
2022/07/07 10:16:55;;;;;;;4.50;1.00;;;20.90;99.90;;;;;;5044701;28;20232;-81
2022/07/07 10:19:24;;;;;;;5.30;1.23;;;21.40;99.90;;;;;;5039411;28;20293;-81
2022/07/07 10:21:53;;;;;;;5.28;1.20;;;21.40;99.90;;;;;;5048682;28;20205;-78
2022/07/07 10:24:22;;;;;;;1.70;0.90;;;21.30;99.90;;;;;;5046354;28;20685;-81
2022/07/07 10:26:55;;;;;;;5.00;1.35;;;21.20;99.90;;;;;;5045055;28;20590;-80
2022/07/07 10:29:40;;;;;;;4.25;0.98;;;21.00;99.90;;;;;;5047136;28;20204;-82
2022/07/07 10:32:12;;;;;;;3.75;0.90;;;21.00;99.90;;;;;;5047524;28;20220;-80
2022/07/07 10:34:50;;;;;;;2.97;0.80;;;21.00;99.90;;;;;;5047598;28;20225;-80
2022/07/07 10:37:17;;;;;;;3.35;0.88;;;21.00;99.90;;;;;;5046268;28;20606;-80
2022/07/07 10:39:47;;;;;;;3.63;0.90;;;21.00;99.90;;;;;;5046355;28;20262;-84
2022/07/07 10:42:17;;;;;;;3.30;0.90;;;20.90;99.90;;;;;;5044857;28;20196;-83
2022/07/07 10:44:51;;;;;;;2.22;0.80;;;21.00;99.90;;;;;;5045861;28;20689;-82
2022/07/07 10:47:18;;;;;;;2.08;1.05;;;21.10;99.90;;;;;;5044342;28;20806;-81
2022/07/07 10:49:49;;;;;;;2.80;0.70;;;21.30;99.90;;;;;;5044504;28;20228;-81
2022/07/07 10:52:19;;;;;;;2.53;0.73;;;21.60;99.90;;;;;;5044298;28;20243;-80
2022/07/07 10:54:50;;;;;;;4.00;1.10;;;21.80;99.90;;;;;;5043775;28;20205;-80
2022/07/07 10:57:25;;;;;;;3.17;0.93;;;21.80;99.90;;;;;;5043459;28;20205;-80
2022/07/07 11:00:03;;;;;;;3.90;0.98;;;21.60;99.90;;;;;;5050275;28;20204;-81
2022/07/07 11:02:34;;;;;;;3.10;1.77;;;20.90;99.90;;;;;;5041359;28;20204;-82
2022/07/07 11:05:23;;;;;;;2.03;1.20;;;20.50;99.90;;;;;;5070704;28;20315;-82
2022/07/07 11:07:55;;;;;;;4.05;1.70;;;20.00;99.90;;;;;;5041288;28;20202;-76
2022/07/07 11:10:45;;;;;;;4.25;1.23;;;19.80;99.90;;;;;;5043745;28;20209;-76
2022/07/07 11:13:21;;;;;;;2.75;1.33;;;19.80;99.90;;;;;;5042360;28;20271;-81
2022/07/07 11:16:07;;;;;;;2.70;1.40;;;19.80;99.90;;;;;;5051383;28;20793;-83
2022/07/07 11:18:34;;;;;;;5.40;1.77;;;20.00;99.90;;;;;;5051688;28;20228;-81
2022/07/07 11:21:04;;;;;;;3.45;1.55;;;20.10;99.90;;;;;;5050794;28;20204;-77
2022/07/07 11:23:55;;;;;;;2.72;1.13;;;20.30;99.90;;;;;;5052834;28;20216;-80
2022/07/07 11:26:26;;;;;;;5.97;1.25;;;20.50;99.90;;;;;;5063324;28;20212;-79
2022/07/07 11:28:55;;;;;;;4.03;1.67;;;20.50;99.90;;;;;;5046750;28;20216;-85
2022/07/07 11:31:23;;;;;;;5.15;1.88;;;20.40;99.90;;;;;;5054295;28;20205;-81
2022/07/07 11:33:55;;;;;;;3.95;1.42;;;20.40;99.90;;;;;;5046024;28;20252;-81
2022/07/07 11:36:28;;;;;;;5.53;1.60;;;20.40;99.90;;;;;;5047084;28;20205;-83
2022/07/07 11:39:05;;;;;;;4.95;1.80;;;20.30;99.90;;;;;;5048124;28;20210;-77
2022/07/07 11:41:45;;;;;;;3.28;1.42;;;20.30;99.90;;;;;;5045918;28;20240;-77
2022/07/07 11:44:23;;;;;;;5.80;1.48;;;20.30;99.90;;;;;;5045765;28;20264;-77
2022/07/07 11:46:51;;;;;;;2.10;1.38;;;20.30;99.90;;;;;;5041094;28;20216;-76
2022/07/07 11:49:20;;;;;;;2.63;1.63;;;20.30;99.90;;;;;;5045995;28;20586;-76
2022/07/07 11:51:47;;;;;;;3.47;1.33;;;20.30;99.90;;;;;;5040557;28;20213;-76
2022/07/07 11:54:15;;;;;;;6.82;2.45;;;20.30;99.90;;;;;;5050026;28;20203;-75
2022/07/07 11:56:42;;;;;;;5.50;1.70;;;20.30;99.90;;;;;;5046202;28;20205;-78
2022/07/07 11:59:09;;;;;;;12.63;2.05;;;20.10;99.90;;;;;;5044651;28;20201;-76
2022/07/07 12:01:38;;;;;;;5.13;1.55;;;20.00;99.90;;;;;;5048668;28;20201;-76
2022/07/07 12:04:20;;;;;;;7.50;1.80;;;19.90;99.90;;;;;;5049289;28;20221;-75
2022/07/07 12:06:48;;;;;;;7.82;1.95;;;19.90;99.90;;;;;;5044285;28;20267;-77
2022/07/07 12:09:16;;;;;;;9.40;2.17;;;19.80;99.90;;;;;;5045794;28;20206;-76
2022/07/07 12:11:43;;;;;;;12.15;2.67;;;19.90;99.90;;;;;;5048105;28;20250;-77
2022/07/07 12:14:12;;;;;;;8.05;2.15;;;20.00;99.90;;;;;;5049616;28;20304;-79
2022/07/07 12:16:44;;;;;;;11.50;2.53;;;20.00;99.90;;;;;;5055532;28;20275;-78
2022/07/07 12:19:12;;;;;;;8.88;2.90;;;20.20;99.90;;;;;;5046898;28;20226;-76
2022/07/07 12:21:48;;;;;;;11.52;2.80;;;20.40;99.90;;;;;;5051375;28;20236;-79
2022/07/07 12:24:17;;;;;;;9.63;2.53;;;20.60;99.90;;;;;;5042903;28;20232;-78
2022/07/07 12:26:51;;;;;;;10.52;2.17;;;21.00;99.90;;;;;;5048933;28;20193;-78
2022/07/07 12:29:20;;;;;;;7.22;1.75;;;21.20;99.90;;;;;;5051054;28;20548;-77
2022/07/07 12:31:49;;;;;;;6.85;1.75;;;21.40;99.90;;;;;;5059085;28;20632;-78
2022/07/07 12:34:20;;;;;;;7.82;1.85;;;21.50;99.90;;;;;;5057881;28;20613;-78
2022/07/07 12:36:49;;;;;;;11.80;2.30;;;21.70;99.90;;;;;;5053234;28;20216;-77
2022/07/07 12:39:19;;;;;;;6.88;1.80;;;21.70;99.90;;;;;;5045417;28;20221;-77
2022/07/07 12:41:51;;;;;;;5.78;1.63;;;21.60;99.90;;;;;;5042915;28;20208;-75
2022/07/07 12:44:30;;;;;;;4.90;1.65;;;21.50;99.90;;;;;;5041670;28;20580;-79
2022/07/07 12:47:18;;;;;;;7.53;1.63;;;21.70;99.90;;;;;;5046792;28;20205;-77
2022/07/07 12:49:55;;;;;;;4.75;1.45;;;21.90;99.90;;;;;;5050272;28;20213;-79
2022/07/07 12:52:23;;;;;;;5.40;1.75;;;22.00;99.90;;;;;;5044069;28;20205;-75
2022/07/07 12:54:55;;;;;;;6.68;1.55;;;22.10;99.90;;;;;;5048368;28;20205;-78
2022/07/07 12:57:27;;;;;;;6.80;1.70;;;22.10;99.90;;;;;;5051797;28;20296;-77
2022/07/07 12:59:55;;;;;;;5.65;2.00;;;22.20;99.90;;;;;;5048137;28;20212;-78